Time;durP1;ratioP1;P1;durP2;ratioP2;P2;SDS_P1;SDS_P2;PMS_P1;PMS_P2;Temp;Humidity;BMP_temperature;BMP_pressure;BME280_temperature;BME280_humidity;BME280_pressure;Samples;Min_cycle;Max_cycle;Signal;HPM_P1;HPM_P2
2022/12/06 00:00:19;;;;;;;;;;;;;;;;;;1049074;28;2390;-59
2022/12/06 00:01:14;;;;;;;;;;;;;;;;;;1051015;28;2820;-59
2022/12/06 00:01:45;;;;;;;;;;;;;;;;;;1050726;28;2470;-59
2022/12/06 00:02:15;;;;;;;;;;;;;;;;;;1050816;28;2205;-60
2022/12/06 00:02:45;;;;;;;;;;;;;;;;;;1052783;28;2181;-59
2022/12/06 00:03:16;;;;;;;;;;;;;;;;;;1049810;28;2073;-60
2022/12/06 00:03:49;;;;;;;;;;;;;;;;;;1046675;28;2364;-60
2022/12/06 00:04:20;;;;;;;;;;;;;;;;;;1050641;28;2265;-59
2022/12/06 00:04:50;;;;;;;;;;;;;;;;;;1051368;28;1879;-60
2022/12/06 00:05:20;;;;;;;;;;;;;;;;;;1051987;28;1861;-60
2022/12/06 00:05:50;;;;;;;;;;;;;;;;;;1052087;28;2194;-60
2022/12/06 00:06:22;;;;;;;;;;;;;;;;;;1050895;28;2113;-60
2022/12/06 00:06:53;;;;;;;;;;;;;;;;;;1049948;28;1744;-60
2022/12/06 00:07:23;;;;;;;;;;;;;;;;;;1050692;28;2210;-60
2022/12/06 00:07:54;;;;;;;;;;;;;;;;;;1051257;28;2293;-59
2022/12/06 00:08:24;;;;;;;;;;;;;;;;;;1047813;28;2280;-60
2022/12/06 00:08:54;;;;;;;;;;;;;;;;;;1049342;28;2021;-60
2022/12/06 00:09:27;;;;;;;;;;;;;;;;;;1050000;28;2451;-60
2022/12/06 00:09:57;;;;;;;;;;;;;;;;;;1051142;28;2001;-60
2022/12/06 00:10:35;;;;;;;;;;;;;;;;;;1051397;28;2478;-60
2022/12/06 00:11:06;;;;;;;;;;;;;;;;;;1049974;28;1818;-59
2022/12/06 00:11:36;;;;;;;;;;;;;;;;;;1050581;28;1981;-60
2022/12/06 00:12:06;;;;;;;;;;;;;;;;;;1051558;28;2267;-59
2022/12/06 00:12:37;;;;;;;;;;;;;;;;;;1050323;28;2664;-59
2022/12/06 00:13:07;;;;;;;;;;;;;;;;;;1049465;28;2417;-60
2022/12/06 00:13:38;;;;;;;;;;;;;;;;;;1051952;28;2318;-60
2022/12/06 00:14:09;;;;;;;;;;;;;;;;;;1053080;28;1606;-60
2022/12/06 00:14:39;;;;;;;;;;;;;;;;;;1052075;28;2028;-60
2022/12/06 00:15:09;;;;;;;;;;;;;;;;;;1052407;28;1690;-60
2022/12/06 00:15:40;;;;;;;;;;;;;;;;;;1052972;28;1997;-60
2022/12/06 00:16:14;;;;;;;;;;;;;;;;;;1056224;28;1618;-60
2022/12/06 00:16:44;;;;;;;;;;;;;;;;;;1049297;28;2146;-60
2022/12/06 00:17:15;;;;;;;;;;;;;;;;;;1049515;28;2136;-60
2022/12/06 00:17:45;;;;;;;;;;;;;;;;;;1053138;28;2113;-60
2022/12/06 00:18:15;;;;;;;;;;;;;;;;;;1050752;28;2155;-60
2022/12/06 00:18:46;;;;;;;;;;;;;;;;;;1050666;28;2261;-59
2022/12/06 00:19:18;;;;;;;;;;;;;;;;;;1053400;28;1669;-59
2022/12/06 00:19:48;;;;;;;;;;;;;;;;;;1050103;28;2971;-60
2022/12/06 00:20:18;;;;;;;;;;;;;;;;;;1052369;28;2016;-59
2022/12/06 00:20:49;;;;;;;;;;;;;;;;;;1051683;28;1890;-59
2022/12/06 00:21:20;;;;;;;;;;;;;;;;;;1049992;28;2256;-60
2022/12/06 00:21:50;;;;;;;;;;;;;;;;;;1050765;28;1684;-60
2022/12/06 00:22:20;;;;;;;;;;;;;;;;;;1050749;28;2295;-60
2022/12/06 00:22:51;;;;;;;;;;;;;;;;;;1043265;28;2722;-60
2022/12/06 00:23:21;;;;;;;;;;;;;;;;;;1044542;28;2600;-60
2022/12/06 00:23:52;;;;;;;;;;;;;;;;;;1045142;28;2271;-59
2022/12/06 00:24:23;;;;;;;;;;;;;;;;;;1045342;28;2320;-59
2022/12/06 00:24:53;;;;;;;;;;;;;;;;;;1048431;28;2799;-60
2022/12/06 00:25:23;;;;;;;;;;;;;;;;;;1051195;28;2569;-60
2022/12/06 00:25:53;;;;;;;;;;;;;;;;;;1052748;28;1839;-60
2022/12/06 00:26:24;;;;;;;;;;;;;;;;;;1050063;28;2106;-60
2022/12/06 00:26:54;;;;;;;;;;;;;;;;;;1050374;28;2376;-60
2022/12/06 00:27:24;;;;;;;;;;;;;;;;;;1050432;28;2215;-60
2022/12/06 00:27:55;;;;;;;;;;;;;;;;;;1051747;28;1815;-60
2022/12/06 00:28:25;;;;;;;;;;;;;;;;;;1052691;28;2292;-60
2022/12/06 00:28:59;;;;;;;;;;;;;;;;;;1050457;28;2036;-60
2022/12/06 00:29:29;;;;;;;;;;;;;;;;;;1048175;28;2367;-60
2022/12/06 00:29:59;;;;;;;;;;;;;;;;;;1052797;28;2585;-60
2022/12/06 00:30:30;;;;;;;;;;;;;;;;;;1050160;28;2340;-60
2022/12/06 00:31:01;;;;;;;;;;;;;;;;;;1049958;28;2060;-60
2022/12/06 00:31:33;;;;;;;;;;;;;;;;;;1048626;28;2522;-60
2022/12/06 00:32:03;;;;;;;;;;;;;;;;;;1053140;28;2248;-60
2022/12/06 00:32:33;;;;;;;;;;;;;;;;;;1050647;28;2727;-58
2022/12/06 00:33:04;;;;;;;;;;;;;;;;;;1048287;28;2472;-60
2022/12/06 00:33:35;;;;;;;;;;;;;;;;;;1052559;28;2972;-58
2022/12/06 00:34:05;;;;;;;;;;;;;;;;;;1047742;28;2272;-59
2022/12/06 00:34:35;;;;;;;;;;;;;;;;;;1050355;28;2147;-60
2022/12/06 00:35:06;;;;;;;;;;;;;;;;;;1047678;28;2739;-59
2022/12/06 00:35:36;;;;;;;;;;;;;;;;;;1045410;28;2187;-60
2022/12/06 00:36:09;;;;;;;;;;;;;;;;;;1044927;28;2492;-60
2022/12/06 00:36:40;;;;;;;;;;;;;;;;;;1044459;28;2127;-60
2022/12/06 00:37:10;;;;;;;;;;;;;;;;;;1045187;28;2226;-60
2022/12/06 00:37:41;;;;;;;;;;;;;;;;;;1053352;28;1893;-60
2022/12/06 00:38:11;;;;;;;;;;;;;;;;;;1050621;28;2080;-60
2022/12/06 00:38:41;;;;;;;;;;;;;;;;;;1051216;28;1791;-60
2022/12/06 00:39:12;;;;;;;;;;;;;;;;;;1049746;28;2467;-60
2022/12/06 00:39:43;;;;;;;;;;;;;;;;;;1052707;28;1819;-60
2022/12/06 00:40:13;;;;;;;;;;;;;;;;;;1052798;28;2648;-60
2022/12/06 00:40:43;;;;;;;;;;;;;;;;;;1050970;28;2317;-60
2022/12/06 00:41:16;;;;;;;;;;;;;;;;;;1051207;28;1870;-60
2022/12/06 00:41:46;;;;;;;;;;;;;;;;;;1050002;28;3073;-60
2022/12/06 00:42:16;;;;;;;;;;;;;;;;;;1049917;28;2795;-60
2022/12/06 00:42:46;;;;;;;;;;;;;;;;;;1048289;28;2785;-60
2022/12/06 00:43:17;;;;;;;;;;;;;;;;;;1049622;28;2210;-59
2022/12/06 00:43:47;;;;;;;;;;;;;;;;;;1050067;28;2233;-60
2022/12/06 00:44:18;;;;;;;;;;;;;;;;;;1050419;28;2215;-60
2022/12/06 00:44:48;;;;;;;;;;;;;;;;;;1048243;28;2028;-60
2022/12/06 00:45:18;;;;;;;;;;;;;;;;;;1049933;28;2196;-60
2022/12/06 00:45:48;;;;;;;;;;;;;;;;;;1049935;28;2252;-60
2022/12/06 00:46:20;;;;;;;;;;;;;;;;;;1050502;28;2404;-60
2022/12/06 00:46:50;;;;;;;;;;;;;;;;;;1049776;28;2353;-60
2022/12/06 00:47:20;;;;;;;;;;;;;;;;;;1052464;28;2034;-59
2022/12/06 00:47:51;;;;;;;;;;;;;;;;;;1050490;28;2243;-60
2022/12/06 00:48:21;;;;;;;;;;;;;;;;;;1050024;28;1817;-60
2022/12/06 00:48:52;;;;;;;;;;;;;;;;;;1044696;28;2596;-60
2022/12/06 00:49:22;;;;;;;;;;;;;;;;;;1048154;28;2572;-59
2022/12/06 00:49:52;;;;;;;;;;;;;;;;;;1047654;28;1615;-59
2022/12/06 00:50:23;;;;;;;;;;;;;;;;;;1045630;28;2337;-60
2022/12/06 00:50:59;;;;;;;;;;;;;;;;;;1046760;28;1972;-60
2022/12/06 00:51:37;;;;;;;;;;;;;;;;;;1051762;28;1723;-60
2022/12/06 00:52:14;;;;;;;;;;;;;;;;;;1048649;28;2245;-60
2022/12/06 00:52:44;;;;;;;;;;;;;;;;;;1047638;28;2769;-60
2022/12/06 00:53:14;;;;;;;;;;;;;;;;;;1048295;28;2535;-60
2022/12/06 00:53:45;;;;;;;;;;;;;;;;;;1044059;28;2730;-60
2022/12/06 00:54:15;;;;;;;;;;;;;;;;;;1047134;28;2453;-60
2022/12/06 00:54:45;;;;;;;;;;;;;;;;;;1047668;28;2212;-60
2022/12/06 00:55:29;;;;;;;;;;;;;;;;;;1045890;28;2105;-60
2022/12/06 00:55:59;;;;;;;;;;;;;;;;;;1051442;28;1697;-60
2022/12/06 00:56:29;;;;;;;;;;;;;;;;;;1049931;28;2635;-61
2022/12/06 00:56:59;;;;;;;;;;;;;;;;;;1051715;28;1740;-60
2022/12/06 00:57:29;;;;;;;;;;;;;;;;;;1049524;28;2780;-60
2022/12/06 00:58:00;;;;;;;;;;;;;;;;;;1044830;28;2271;-60
2022/12/06 00:58:30;;;;;;;;;;;;;;;;;;1045584;28;2977;-60
2022/12/06 00:59:00;;;;;;;;;;;;;;;;;;1045279;28;2941;-60
2022/12/06 00:59:31;;;;;;;;;;;;;;;;;;1043068;28;2386;-59
2022/12/06 01:00:01;;;;;;;;;;;;;;;;;;1049074;28;2277;-60
2022/12/06 01:00:31;;;;;;;;;;;;;;;;;;1048045;28;2678;-60
2022/12/06 01:01:15;;;;;;;;;;;;;;;;;;1046956;28;2291;-60
2022/12/06 01:01:45;;;;;;;;;;;;;;;;;;1043988;28;2310;-60
2022/12/06 01:02:15;;;;;;;;;;;;;;;;;;1045459;28;2958;-59
2022/12/06 01:02:45;;;;;;;;;;;;;;;;;;1046882;28;2320;-60
2022/12/06 01:03:16;;;;;;;;;;;;;;;;;;1048405;28;2991;-60
2022/12/06 01:03:50;;;;;;;;;;;;;;;;;;1048127;28;2942;-60
2022/12/06 01:04:20;;;;;;;;;;;;;;;;;;1048865;28;2510;-60
2022/12/06 01:04:50;;;;;;;;;;;;;;;;;;1050715;28;2417;-60
2022/12/06 01:05:20;;;;;;;;;;;;;;;;;;1049511;28;2082;-59
2022/12/06 01:05:51;;;;;;;;;;;;;;;;;;1051873;28;1690;-60
2022/12/06 01:06:26;;;;;;;;;;;;;;;;;;1050466;28;2012;-60
2022/12/06 01:06:56;;;;;;;;;;;;;;;;;;1051474;28;2228;-60
2022/12/06 01:07:26;;;;;;;;;;;;;;;;;;1048132;28;2483;-60
2022/12/06 01:07:56;;;;;;;;;;;;;;;;;;1045789;28;2429;-60
2022/12/06 01:08:27;;;;;;;;;;;;;;;;;;1043682;28;2459;-60
2022/12/06 01:08:58;;;;;;;;;;;;;;;;;;1046596;28;2186;-59
2022/12/06 01:09:29;;;;;;;;;;;;;;;;;;1046908;28;2003;-60
2022/12/06 01:10:00;;;;;;;;;;;;;;;;;;1046967;28;1911;-60
2022/12/06 01:10:30;;;;;;;;;;;;;;;;;;1046399;28;2298;-60
2022/12/06 01:11:07;;;;;;;;;;;;;;;;;;1047681;28;2591;-60
2022/12/06 01:11:38;;;;;;;;;;;;;;;;;;1047638;28;2448;-60
2022/12/06 01:12:08;;;;;;;;;;;;;;;;;;1047228;28;2441;-60
2022/12/06 01:12:38;;;;;;;;;;;;;;;;;;1048726;28;2398;-60
2022/12/06 01:13:08;;;;;;;;;;;;;;;;;;1048185;28;2352;-60
2022/12/06 01:13:39;;;;;;;;;;;;;;;;;;1050389;28;2362;-59
2022/12/06 01:14:09;;;;;;;;;;;;;;;;;;1049512;28;2537;-60
2022/12/06 01:14:39;;;;;;;;;;;;;;;;;;1049558;28;2831;-60
2022/12/06 01:15:09;;;;;;;;;;;;;;;;;;1050027;28;2119;-59
2022/12/06 01:15:40;;;;;;;;;;;;;;;;;;1049671;28;2072;-60
2022/12/06 01:16:12;;;;;;;;;;;;;;;;;;1051861;28;1907;-60
2022/12/06 01:16:42;;;;;;;;;;;;;;;;;;1050091;28;2332;-60
2022/12/06 01:17:12;;;;;;;;;;;;;;;;;;1050489;28;1739;-60
2022/12/06 01:17:42;;;;;;;;;;;;;;;;;;1049497;28;2040;-60
2022/12/06 01:18:13;;;;;;;;;;;;;;;;;;1051241;28;1745;-60
2022/12/06 01:18:43;;;;;;;;;;;;;;;;;;1050527;28;2447;-60
2022/12/06 01:19:14;;;;;;;;;;;;;;;;;;1048978;28;2418;-60
2022/12/06 01:19:44;;;;;;;;;;;;;;;;;;1050746;28;1922;-60
2022/12/06 01:20:14;;;;;;;;;;;;;;;;;;1046402;28;2587;-60
2022/12/06 01:20:45;;;;;;;;;;;;;;;;;;1045998;28;2140;-60
2022/12/06 01:21:16;;;;;;;;;;;;;;;;;;1045179;28;2502;-60
2022/12/06 01:21:47;;;;;;;;;;;;;;;;;;1044719;28;2390;-60
2022/12/06 01:22:17;;;;;;;;;;;;;;;;;;1050440;28;2217;-60
2022/12/06 01:22:47;;;;;;;;;;;;;;;;;;1048460;28;2473;-60
2022/12/06 01:23:18;;;;;;;;;;;;;;;;;;1047593;28;2239;-60
2022/12/06 01:23:48;;;;;;;;;;;;;;;;;;1051503;28;2362;-60
2022/12/06 01:24:18;;;;;;;;;;;;;;;;;;1050609;28;2700;-60
2022/12/06 01:24:48;;;;;;;;;;;;;;;;;;1050071;28;2649;-60
2022/12/06 01:25:18;;;;;;;;;;;;;;;;;;1050631;28;2558;-60
2022/12/06 01:25:50;;;;;;;;;;;;;;;;;;1048328;28;2125;-60
2022/12/06 01:26:20;;;;;;;;;;;;;;;;;;1052712;28;1918;-60
2022/12/06 01:26:50;;;;;;;;;;;;;;;;;;1050454;28;2352;-59
2022/12/06 01:27:20;;;;;;;;;;;;;;;;;;1046963;28;2340;-60
2022/12/06 01:27:51;;;;;;;;;;;;;;;;;;1043053;28;2950;-60
2022/12/06 01:28:21;;;;;;;;;;;;;;;;;;1045864;28;1373;-60
2022/12/06 01:28:51;;;;;;;;;;;;;;;;;;1045536;28;2374;-60
2022/12/06 01:29:21;;;;;;;;;;;;;;;;;;1049627;28;2355;-60
2022/12/06 01:29:52;;;;;;;;;;;;;;;;;;1050830;28;2450;-60
2022/12/06 01:30:22;;;;;;;;;;;;;;;;;;1050099;28;2396;-60
2022/12/06 01:30:52;;;;;;;;;;;;;;;;;;1049486;28;2408;-60
2022/12/06 01:31:22;;;;;;;;;;;;;;;;;;1050943;28;2591;-60
2022/12/06 01:31:53;;;;;;;;;;;;;;;;;;1050455;28;2424;-60
2022/12/06 01:32:23;;;;;;;;;;;;;;;;;;1050216;28;2148;-60
2022/12/06 01:32:53;;;;;;;;;;;;;;;;;;1048949;28;2961;-60
2022/12/06 01:33:23;;;;;;;;;;;;;;;;;;1050499;28;1996;-61
2022/12/06 01:33:54;;;;;;;;;;;;;;;;;;1049141;28;1986;-60
2022/12/06 01:34:24;;;;;;;;;;;;;;;;;;1048592;28;2861;-60
2022/12/06 01:34:54;;;;;;;;;;;;;;;;;;1049073;28;2594;-60
2022/12/06 01:35:24;;;;;;;;;;;;;;;;;;1049464;28;2504;-60
2022/12/06 01:36:02;;;;;;;;;;;;;;;;;;1048786;28;2570;-59
2022/12/06 01:36:32;;;;;;;;;;;;;;;;;;1050060;28;2543;-60
2022/12/06 01:37:02;;;;;;;;;;;;;;;;;;1049730;28;2519;-59
2022/12/06 01:37:32;;;;;;;;;;;;;;;;;;1047766;28;2784;-60
2022/12/06 01:38:03;;;;;;;;;;;;;;;;;;1052522;28;2108;-59
2022/12/06 01:38:34;;;;;;;;;;;;;;;;;;1048416;28;2352;-60
2022/12/06 01:39:07;;;;;;;;;;;;;;;;;;1051342;28;2113;-60
2022/12/06 01:39:37;;;;;;;;;;;;;;;;;;1048708;28;2392;-59
2022/12/06 01:40:07;;;;;;;;;;;;;;;;;;1049147;28;2474;-59
2022/12/06 01:40:42;;;;;;;;;;;;;;;;;;1047025;28;2694;-60
2022/12/06 01:41:13;;;;;;;;;;;;;;;;;;1049223;28;2299;-60
2022/12/06 01:41:43;;;;;;;;;;;;;;;;;;1047245;28;2941;-60
2022/12/06 01:42:14;;;;;;;;;;;;;;;;;;1051892;28;2344;-60
2022/12/06 01:42:44;;;;;;;;;;;;;;;;;;1045440;28;2274;-60
2022/12/06 01:43:33;;;;;;;;;;;;;;;;;;1047746;28;2363;-59
2022/12/06 01:44:04;;;;;;;;;;;;;;;;;;1040956;28;2973;-60
2022/12/06 01:44:51;;;;;;;;;;;;;;;;;;1044488;28;2206;-60
2022/12/06 01:45:21;;;;;;;;;;;;;;;;;;1044910;28;2217;-60
2022/12/06 01:45:52;;;;;;;;;;;;;;;;;;1047917;28;2384;-60
2022/12/06 01:46:34;;;;;;;;;;;;;;;;;;1049037;28;3156;-60
2022/12/06 01:47:09;;;;;;;;;;;;;;;;;;1050430;28;2442;-60
2022/12/06 01:47:43;;;;;;;;;;;;;;;;;;1048238;28;2351;-60
2022/12/06 01:48:13;;;;;;;;;;;;;;;;;;1049043;28;2188;-60
2022/12/06 01:48:43;;;;;;;;;;;;;;;;;;1049175;28;2314;-59
2022/12/06 01:49:16;;;;;;;;;;;;;;;;;;1049817;28;2035;-60
2022/12/06 01:49:50;;;;;;;;;;;;;;;;;;1050664;28;2369;-59
2022/12/06 01:50:23;;;;;;;;;;;;;;;;;;1049541;28;2435;-60
2022/12/06 01:51:06;;;;;;;;;;;;;;;;;;1043454;28;2622;-60
2022/12/06 01:51:46;;;;;;;;;;;;;;;;;;1044402;28;2330;-60
2022/12/06 01:52:17;;;;;;;;;;;;;;;;;;1043821;28;2404;-60
2022/12/06 01:52:47;;;;;;;;;;;;;;;;;;1045006;28;2446;-60
2022/12/06 01:53:18;;;;;;;;;;;;;;;;;;1044289;28;2233;-60
2022/12/06 01:53:50;;;;;;;;;;;;;;;;;;1045980;28;2407;-60
2022/12/06 01:54:22;;;;;;;;;;;;;;;;;;1043327;28;2330;-59
2022/12/06 01:54:52;;;;;;;;;;;;;;;;;;1045210;28;2171;-60
2022/12/06 01:55:25;;;;;;;;;;;;;;;;;;1044255;28;2712;-60
2022/12/06 01:55:56;;;;;;;;;;;;;;;;;;1047385;28;2053;-59
2022/12/06 01:56:26;;;;;;;;;;;;;;;;;;1047256;28;2170;-60
2022/12/06 01:56:57;;;;;;;;;;;;;;;;;;1045737;28;2334;-60
2022/12/06 01:57:27;;;;;;;;;;;;;;;;;;1046229;28;2640;-58
2022/12/06 01:58:01;;;;;;;;;;;;;;;;;;1046836;28;1730;-60
2022/12/06 01:58:34;;;;;;;;;;;;;;;;;;1045813;28;2602;-60
2022/12/06 01:59:06;;;;;;;;;;;;;;;;;;1046214;28;2383;-60
2022/12/06 01:59:36;;;;;;;;;;;;;;;;;;1045861;28;2705;-60
2022/12/06 02:00:07;;;;;;;;;;;;;;;;;;1045083;28;3497;-60
2022/12/06 02:00:37;;;;;;;;;;;;;;;;;;1047128;28;2320;-59
2022/12/06 02:01:08;;;;;;;;;;;;;;;;;;1044644;28;2433;-60
2022/12/06 02:01:39;;;;;;;;;;;;;;;;;;1045374;28;2359;-60
2022/12/06 02:02:10;;;;;;;;;;;;;;;;;;1042624;28;2368;-60
2022/12/06 02:02:40;;;;;;;;;;;;;;;;;;1045460;28;3027;-60
2022/12/06 02:03:15;;;;;;;;;;;;;;;;;;1043362;28;3503;-60
2022/12/06 02:03:47;;;;;;;;;;;;;;;;;;1044733;28;2395;-60
2022/12/06 02:04:17;;;;;;;;;;;;;;;;;;1043866;28;2444;-60
2022/12/06 02:04:49;;;;;;;;;;;;;;;;;;1045509;28;2121;-59
2022/12/06 02:05:19;;;;;;;;;;;;;;;;;;1047226;28;2416;-59
2022/12/06 02:05:50;;;;;;;;;;;;;;;;;;1047386;28;2229;-59
2022/12/06 02:06:20;;;;;;;;;;;;;;;;;;1045135;28;2561;-59
2022/12/06 02:06:51;;;;;;;;;;;;;;;;;;1045326;28;1547;-60
2022/12/06 02:07:23;;;;;;;;;;;;;;;;;;1046005;28;1847;-59
2022/12/06 02:07:54;;;;;;;;;;;;;;;;;;1046704;28;2483;-60
2022/12/06 02:08:25;;;;;;;;;;;;;;;;;;1043961;28;2544;-60
2022/12/06 02:08:57;;;;;;;;;;;;;;;;;;1050383;28;2380;-60
2022/12/06 02:09:27;;;;;;;;;;;;;;;;;;1045490;28;2365;-60
2022/12/06 02:09:58;;;;;;;;;;;;;;;;;;1046608;28;2152;-59
2022/12/06 02:10:28;;;;;;;;;;;;;;;;;;1045008;28;2434;-60
2022/12/06 02:11:00;;;;;;;;;;;;;;;;;;1047583;28;1745;-60
2022/12/06 02:11:30;;;;;;;;;;;;;;;;;;1046472;28;2178;-60
2022/12/06 02:12:01;;;;;;;;;;;;;;;;;;1044206;28;2475;-60
2022/12/06 02:12:31;;;;;;;;;;;;;;;;;;1043358;28;2261;-60
2022/12/06 02:13:01;;;;;;;;;;;;;;;;;;1044380;28;2434;-60
2022/12/06 02:13:32;;;;;;;;;;;;;;;;;;1049008;28;3027;-59
2022/12/06 02:14:04;;;;;;;;;;;;;;;;;;1045487;28;2301;-60
2022/12/06 02:14:34;;;;;;;;;;;;;;;;;;1048392;28;2476;-59
2022/12/06 02:15:05;;;;;;;;;;;;;;;;;;1045517;28;2781;-60
2022/12/06 02:15:38;;;;;;;;;;;;;;;;;;1045846;28;2824;-60
2022/12/06 02:16:08;;;;;;;;;;;;;;;;;;1045295;28;2487;-60
2022/12/06 02:16:57;;;;;;;;;;;;;;;;;;1047665;28;2046;-60
2022/12/06 02:17:33;;;;;;;;;;;;;;;;;;1045323;28;2387;-60
2022/12/06 02:18:17;;;;;;;;;;;;;;;;;;1044576;28;2439;-60
2022/12/06 02:18:50;;;;;;;;;;;;;;;;;;1044849;28;2395;-60
2022/12/06 02:19:31;;;;;;;;;;;;;;;;;;1045988;28;1830;-60
2022/12/06 02:20:07;;;;;;;;;;;;;;;;;;1044926;28;2765;-60
2022/12/06 02:20:44;;;;;;;;;;;;;;;;;;1045439;28;2218;-60
2022/12/06 02:21:18;;;;;;;;;;;;;;;;;;1044831;28;2658;-60
2022/12/06 02:21:51;;;;;;;;;;;;;;;;;;1044645;28;2353;-60
2022/12/06 02:22:21;;;;;;;;;;;;;;;;;;1044967;28;1890;-60
2022/12/06 02:23:01;;;;;;;;;;;;;;;;;;1046670;28;2353;-59
2022/12/06 02:23:41;;;;;;;;;;;;;;;;;;1047087;28;2336;-60
2022/12/06 02:24:37;;;;;;;;;;;;;;;;;;1043147;28;2495;-60
2022/12/06 02:25:10;;;;;;;;;;;;;;;;;;1045685;28;2250;-59
2022/12/06 02:25:55;;;;;;;;;;;;;;;;;;1045817;28;2320;-60
2022/12/06 02:26:25;;;;;;;;;;;;;;;;;;1045777;28;1922;-60
2022/12/06 02:27:02;;;;;;;;;;;;;;;;;;1046375;28;2362;-59
2022/12/06 02:27:43;;;;;;;;;;;;;;;;;;1044083;28;2446;-59
2022/12/06 02:28:32;;;;;;;;;;;;;;;;;;1046024;28;2035;-60
2022/12/06 02:29:02;;;;;;;;;;;;;;;;;;1046412;28;2061;-60
2022/12/06 02:29:47;;;;;;;;;;;;;;;;;;1045581;28;2408;-60
2022/12/06 02:30:36;;;;;;;;;;;;;;;;;;1043995;28;2769;-59
2022/12/06 02:31:12;;;;;;;;;;;;;;;;;;1045251;28;2033;-60
2022/12/06 02:31:55;;;;;;;;;;;;;;;;;;1046515;28;1667;-60
2022/12/06 02:32:38;;;;;;;;;;;;;;;;;;1046311;28;2032;-60
2022/12/06 02:33:14;;;;;;;;;;;;;;;;;;1047087;28;2036;-60
2022/12/06 02:33:44;;;;;;;;;;;;;;;;;;1046618;28;1745;-60
2022/12/06 02:34:21;;;;;;;;;;;;;;;;;;1045438;28;2651;-60
2022/12/06 02:34:58;;;;;;;;;;;;;;;;;;1046562;28;2415;-60
2022/12/06 02:35:39;;;;;;;;;;;;;;;;;;1045287;28;2280;-60
2022/12/06 02:36:16;;;;;;;;;;;;;;;;;;1050153;28;2004;-60
2022/12/06 02:36:52;;;;;;;;;;;;;;;;;;1047506;28;2450;-60
2022/12/06 02:37:28;;;;;;;;;;;;;;;;;;1046871;28;2122;-60
2022/12/06 02:37:58;;;;;;;;;;;;;;;;;;1051002;28;2399;-60
2022/12/06 02:38:58;;;;;;;;;;;;;;;;;;1047892;28;2426;-61
2022/12/06 02:39:41;;;;;;;;;;;;;;;;;;1043374;28;1786;-60
2022/12/06 02:40:15;;;;;;;;;;;;;;;;;;1047414;28;2067;-60
2022/12/06 02:40:52;;;;;;;;;;;;;;;;;;1044006;28;2406;-60
2022/12/06 02:41:28;;;;;;;;;;;;;;;;;;1046575;28;2377;-60
2022/12/06 02:42:11;;;;;;;;;;;;;;;;;;1045274;28;2400;-60
2022/12/06 02:42:48;;;;;;;;;;;;;;;;;;1046608;28;2324;-60
2022/12/06 02:43:22;;;;;;;;;;;;;;;;;;1047837;28;1654;-59
2022/12/06 02:43:55;;;;;;;;;;;;;;;;;;1046299;28;2024;-60
2022/12/06 02:44:43;;;;;;;;;;;;;;;;;;1046283;28;2223;-60
2022/12/06 02:45:17;;;;;;;;;;;;;;;;;;1045908;28;2451;-60
2022/12/06 02:45:50;;;;;;;;;;;;;;;;;;1050499;28;1697;-59
2022/12/06 02:46:21;;;;;;;;;;;;;;;;;;1047592;28;2085;-59
2022/12/06 02:46:52;;;;;;;;;;;;;;;;;;1045916;28;2537;-59
2022/12/06 02:47:29;;;;;;;;;;;;;;;;;;1045812;28;2181;-59
2022/12/06 02:48:01;;;;;;;;;;;;;;;;;;1047093;28;2451;-59
2022/12/06 02:48:32;;;;;;;;;;;;;;;;;;1048824;28;2003;-60
2022/12/06 02:49:04;;;;;;;;;;;;;;;;;;1047016;28;2516;-60
2022/12/06 02:49:37;;;;;;;;;;;;;;;;;;1047282;28;2630;-60
2022/12/06 02:50:09;;;;;;;;;;;;;;;;;;1046735;28;2576;-60
2022/12/06 02:50:42;;;;;;;;;;;;;;;;;;1046679;28;1628;-60
2022/12/06 02:51:25;;;;;;;;;;;;;;;;;;1051322;28;1936;-60
2022/12/06 02:52:03;;;;;;;;;;;;;;;;;;1051680;28;2087;-60
2022/12/06 02:52:36;;;;;;;;;;;;;;;;;;1053278;28;2126;-59
2022/12/06 02:53:09;;;;;;;;;;;;;;;;;;1049990;28;2654;-60
2022/12/06 02:53:42;;;;;;;;;;;;;;;;;;1049437;28;2217;-60
2022/12/06 02:54:12;;;;;;;;;;;;;;;;;;1049084;28;1678;-59
2022/12/06 02:54:44;;;;;;;;;;;;;;;;;;1047836;28;2525;-60
2022/12/06 02:55:15;;;;;;;;;;;;;;;;;;1051166;28;2309;-60
2022/12/06 02:55:46;;;;;;;;;;;;;;;;;;1050002;28;2959;-60
2022/12/06 02:56:17;;;;;;;;;;;;;;;;;;1054818;28;1386;-60
2022/12/06 02:56:47;;;;;;;;;;;;;;;;;;1051553;28;2428;-60
2022/12/06 02:57:18;;;;;;;;;;;;;;;;;;1050920;28;2488;-60
2022/12/06 02:57:49;;;;;;;;;;;;;;;;;;1050040;28;1701;-60
2022/12/06 02:58:20;;;;;;;;;;;;;;;;;;1052093;28;1604;-60
2022/12/06 02:58:57;;;;;;;;;;;;;;;;;;1047399;28;1921;-58
2022/12/06 02:59:27;;;;;;;;;;;;;;;;;;1048015;28;1872;-60
2022/12/06 02:59:57;;;;;;;;;;;;;;;;;;1050744;28;1768;-59
2022/12/06 03:00:34;;;;;;;;;;;;;;;;;;1047309;28;3415;-60
2022/12/06 03:01:09;;;;;;;;;;;;;;;;;;1052848;28;1945;-60
2022/12/06 03:01:42;;;;;;;;;;;;;;;;;;1050139;28;2987;-60
2022/12/06 03:02:12;;;;;;;;;;;;;;;;;;1050675;28;2577;-60
2022/12/06 03:02:42;;;;;;;;;;;;;;;;;;1052857;28;1732;-60
2022/12/06 03:03:13;;;;;;;;;;;;;;;;;;1053503;28;2193;-60
2022/12/06 03:03:50;;;;;;;;;;;;;;;;;;1049914;28;2282;-58
2022/12/06 03:04:30;;;;;;;;;;;;;;;;;;1050615;28;2485;-60
2022/12/06 03:05:07;;;;;;;;;;;;;;;;;;1050085;28;2774;-59
2022/12/06 03:05:40;;;;;;;;;;;;;;;;;;1051144;28;2310;-60
2022/12/06 03:06:29;;;;;;;;;;;;;;;;;;1049893;28;2411;-60
2022/12/06 03:07:05;;;;;;;;;;;;;;;;;;1050448;28;2232;-60
2022/12/06 03:07:41;;;;;;;;;;;;;;;;;;1048657;28;2707;-60
2022/12/06 03:08:16;;;;;;;;;;;;;;;;;;1049699;28;2359;-60
2022/12/06 03:09:02;;;;;;;;;;;;;;;;;;1049907;28;2282;-60
2022/12/06 03:09:43;;;;;;;;;;;;;;;;;;1051481;28;2138;-60
2022/12/06 03:10:37;;;;;;;;;;;;;;;;;;1049983;28;2292;-60
2022/12/06 03:11:08;;;;;;;;;;;;;;;;;;1045400;28;3115;-60
2022/12/06 03:11:50;;;;;;;;;;;;;;;;;;1043849;28;3338;-61
2022/12/06 03:12:37;;;;;;;;;;;;;;;;;;1044477;28;2143;-60
2022/12/06 03:13:07;;;;;;;;;;;;;;;;;;1049911;28;2614;-59
2022/12/06 03:13:49;;;;;;;;;;;;;;;;;;1049281;28;2348;-60
2022/12/06 03:14:22;;;;;;;;;;;;;;;;;;1049301;28;2398;-60
2022/12/06 03:15:07;;;;;;;;;;;;;;;;;;1049916;28;2222;-60
2022/12/06 03:15:58;;;;;;;;;;;;;;;;;;1051786;28;3359;-60
2022/12/06 03:16:31;;;;;;;;;;;;;;;;;;1048594;28;2983;-59
2022/12/06 03:17:14;;;;;;;;;;;;;;;;;;1050197;28;1961;-60
2022/12/06 03:17:45;;;;;;;;;;;;;;;;;;1048440;28;2727;-58
2022/12/06 03:18:20;;;;;;;;;;;;;;;;;;1046405;28;2879;-61
2022/12/06 03:19:09;;;;;;;;;;;;;;;;;;1048629;28;1763;-60
2022/12/06 03:19:40;;;;;;;;;;;;;;;;;;1045733;28;2342;-60
2022/12/06 03:20:13;;;;;;;;;;;;;;;;;;1049076;28;2656;-60
2022/12/06 03:20:45;;;;;;;;;;;;;;;;;;1050134;28;2542;-60
2022/12/06 03:21:21;;;;;;;;;;;;;;;;;;1053519;28;2304;-60
2022/12/06 03:21:57;;;;;;;;;;;;;;;;;;1050577;28;2444;-60
2022/12/06 03:22:32;;;;;;;;;;;;;;;;;;1045836;28;2122;-60
2022/12/06 03:23:04;;;;;;;;;;;;;;;;;;1047444;28;2498;-59
2022/12/06 03:23:37;;;;;;;;;;;;;;;;;;1044890;28;2347;-60
2022/12/06 03:24:10;;;;;;;;;;;;;;;;;;1044724;28;2316;-60
2022/12/06 03:24:41;;;;;;;;;;;;;;;;;;1051576;28;2779;-60
2022/12/06 03:25:12;;;;;;;;;;;;;;;;;;1049670;28;2430;-60
2022/12/06 03:25:44;;;;;;;;;;;;;;;;;;1049696;28;2787;-59
2022/12/06 03:26:17;;;;;;;;;;;;;;;;;;1049320;28;2010;-60
2022/12/06 03:26:48;;;;;;;;;;;;;;;;;;1049793;28;2059;-60
2022/12/06 03:27:19;;;;;;;;;;;;;;;;;;1049562;28;2387;-60
2022/12/06 03:27:50;;;;;;;;;;;;;;;;;;1049867;28;2443;-60
2022/12/06 03:28:20;;;;;;;;;;;;;;;;;;1051433;28;2577;-60
2022/12/06 03:28:54;;;;;;;;;;;;;;;;;;1052720;28;2399;-60
2022/12/06 03:29:26;;;;;;;;;;;;;;;;;;1049710;28;2213;-61
2022/12/06 03:29:59;;;;;;;;;;;;;;;;;;1048367;28;2408;-60
2022/12/06 03:30:31;;;;;;;;;;;;;;;;;;1048658;28;2423;-60
2022/12/06 03:31:02;;;;;;;;;;;;;;;;;;1050287;28;2450;-60
2022/12/06 03:31:34;;;;;;;;;;;;;;;;;;1050086;28;2310;-60
2022/12/06 03:32:06;;;;;;;;;;;;;;;;;;1050494;28;2730;-60
2022/12/06 03:32:38;;;;;;;;;;;;;;;;;;1046450;28;2009;-60
2022/12/06 03:33:09;;;;;;;;;;;;;;;;;;1045964;28;2457;-60
2022/12/06 03:33:43;;;;;;;;;;;;;;;;;;1046117;28;2097;-60
2022/12/06 03:34:16;;;;;;;;;;;;;;;;;;1046701;28;2354;-60
2022/12/06 03:34:49;;;;;;;;;;;;;;;;;;1050698;28;2278;-61
2022/12/06 03:35:22;;;;;;;;;;;;;;;;;;1050477;28;1996;-60
2022/12/06 03:35:53;;;;;;;;;;;;;;;;;;1049451;28;2427;-60
2022/12/06 03:36:25;;;;;;;;;;;;;;;;;;1046510;28;3665;-60
2022/12/06 03:37:03;;;;;;;;;;;;;;;;;;1043966;28;2509;-60
2022/12/06 03:37:34;;;;;;;;;;;;;;;;;;1045587;28;2233;-60
2022/12/06 03:38:10;;;;;;;;;;;;;;;;;;1046106;28;2969;-60
2022/12/06 03:38:45;;;;;;;;;;;;;;;;;;1048630;28;2810;-60
2022/12/06 03:39:19;;;;;;;;;;;;;;;;;;1050430;28;2359;-60
2022/12/06 03:40:08;;;;;;;;;;;;;;;;;;1049841;28;2273;-60
2022/12/06 03:40:40;;;;;;;;;;;;;;;;;;1048819;28;2637;-60
2022/12/06 03:41:11;;;;;;;;;;;;;;;;;;1050644;28;2517;-60
2022/12/06 03:41:44;;;;;;;;;;;;;;;;;;1044843;28;2096;-60
2022/12/06 03:42:16;;;;;;;;;;;;;;;;;;1045952;28;2204;-60
2022/12/06 03:42:46;;;;;;;;;;;;;;;;;;1046525;28;1588;-60
2022/12/06 03:43:17;;;;;;;;;;;;;;;;;;1046189;28;2528;-60
2022/12/06 03:43:47;;;;;;;;;;;;;;;;;;1049972;28;2338;-60
2022/12/06 03:44:18;;;;;;;;;;;;;;;;;;1049948;28;2286;-60
2022/12/06 03:44:48;;;;;;;;;;;;;;;;;;1054347;28;1642;-60
2022/12/06 03:45:19;;;;;;;;;;;;;;;;;;1049253;28;2313;-60
2022/12/06 03:45:52;;;;;;;;;;;;;;;;;;1051781;28;1739;-59
2022/12/06 03:46:25;;;;;;;;;;;;;;;;;;1049658;28;2205;-60
2022/12/06 03:47:02;;;;;;;;;;;;;;;;;;1051298;28;1737;-60
2022/12/06 03:47:36;;;;;;;;;;;;;;;;;;1048503;28;2193;-60
2022/12/06 03:48:12;;;;;;;;;;;;;;;;;;1048506;28;2297;-60
2022/12/06 03:48:48;;;;;;;;;;;;;;;;;;1049405;28;2546;-60